Time;durP1;ratioP1;P1;durP2;ratioP2;P2;SDS_P1;SDS_P2;PMS_P1;PMS_P2;Temp;Humidity;BMP_temperature;BMP_pressure;BME280_temperature;BME280_humidity;BME280_pressure;Samples;Min_cycle;Max_cycle;Signal;HPM_P1;HPM_P2
2022/05/05 00:07:01;;;;;;;17.20;9.50;;;;;;;10.62;54.29;98801.84;432665;1271;112463;-41
2022/05/05 00:17:10;;;;;;;16.10;9.40;;;;;;;10.57;54.59;98798.91;432495;1270;109624;-42
2022/05/05 00:27:17;;;;;;;15.70;8.70;;;;;;;10.41;54.67;98790.73;432599;1273;98039;-45
2022/05/05 00:37:25;;;;;;;16.00;9.10;;;;;;;10.28;54.83;98786.95;432513;1272;108989;-45
2022/05/05 00:47:32;;;;;;;19.50;9.00;;;;;;;10.23;55.18;98786.40;432464;1273;99299;-43
2022/05/05 00:57:40;;;;;;;16.40;8.50;;;;;;;10.27;55.21;98787.13;432599;1273;112906;-41
2022/05/05 01:07:47;;;;;;;14.10;8.10;;;;;;;10.13;55.30;98788.69;432429;1272;107100;-46
2022/05/05 01:17:54;;;;;;;16.00;7.70;;;;;;;10.21;55.61;98780.82;432584;1273;99312;-44
2022/05/05 01:28:15;;;;;;;17.10;10.40;;;;;;;10.30;55.47;98782.40;432657;1270;108886;-44
2022/05/05 01:38:23;;;;;;;27.40;14.30;;;;;;;10.35;55.68;98785.13;433388;1260;99169;-44
2022/05/05 01:48:31;;;;;;;27.40;14.50;;;;;;;10.34;55.68;98790.69;432544;1273;112939;-47
2022/05/05 02:18:52;;;;;;;17.60;11.60;;;;;;;9.81;55.94;98792.29;432472;1273;108811;-44
2022/05/05 02:28:58;;;;;;;17.80;11.60;;;;;;;9.61;56.25;98792.84;432429;1272;99306;-41
2022/05/05 02:39:04;;;;;;;18.50;11.40;;;;;;;9.46;56.57;98792.13;432371;1273;112475;-48
2022/05/05 02:49:16;;;;;;;13.60;8.90;;;;;;;9.48;57.00;98789.52;432656;1272;108992;-45
2022/05/05 02:59:23;;;;;;;14.40;8.40;;;;;;;9.52;56.89;98787.58;432472;1272;98406;-44
2022/05/05 03:09:30;;;;;;;16.20;9.80;;;;;;;9.40;57.19;98795.07;432638;1273;112416;-44
2022/05/05 03:19:38;;;;;;;14.50;10.00;;;;;;;9.29;57.39;98801.23;432458;1272;108967;-45
2022/05/05 03:29:43;;;;;;;14.60;9.80;;;;;;;9.03;57.57;98807.89;432658;1271;99139;-44
2022/05/05 03:39:50;;;;;;;16.60;9.10;;;;;;;9.00;57.93;98812.36;432439;1273;108799;-42
2022/05/05 03:49:57;;;;;;;13.80;9.80;;;;;;;9.05;58.11;98814.87;432429;1272;98020;-42
2022/05/05 04:00:06;;;;;;;16.90;10.40;;;;;;;9.31;58.31;98814.52;432561;1273;111640;-46
2022/05/05 04:10:14;;;;;;;14.00;10.60;;;;;;;10.32;58.17;98811.75;432637;1272;108819;-41
2022/05/05 04:20:21;;;;;;;13.40;9.10;;;;;;;12.00;57.51;98810.96;432397;1272;99282;-46
2022/05/05 04:30:27;;;;;;;19.50;10.70;;;;;;;13.44;56.06;98814.85;432398;1271;108882;-45
2022/05/05 04:40:34;;;;;;;16.50;9.30;;;;;;;13.91;54.84;98824.07;432518;1272;98835;-41
2022/05/05 04:50:41;;;;;;;16.50;8.90;;;;;;;14.36;54.05;98822.77;432509;1273;112777;-46
2022/05/05 05:00:48;;;;;;;16.10;8.60;;;;;;;14.98;52.98;98831.23;432469;1273;108453;-43
2022/05/05 05:10:56;;;;;;;18.20;12.80;;;;;;;15.11;51.76;98834.43;432569;1272;99183;-46
2022/05/05 05:21:03;;;;;;;24.60;13.70;;;;;;;15.68;51.53;98837.79;432527;1272;108264;-46
2022/05/05 05:31:09;;;;;;;20.20;13.60;;;;;;;15.42;50.05;98842.98;432579;1272;99353;-42
2022/05/05 05:41:17;;;;;;;33.40;13.60;;;;;;;15.79;50.22;98844.25;432499;1273;111414;-45
2022/05/05 06:11:57;;;;;;;21.80;13.70;;;;;;;18.04;48.09;98856.05;432631;1273;107827;-48
2022/05/05 06:22:04;;;;;;;28.20;15.90;;;;;;;18.74;47.89;98855.96;432277;1273;605627;-41
2022/05/05 06:32:12;;;;;;;57.80;17.20;;;;;;;19.38;47.31;98860.83;432395;1272;111428;-42
2022/05/05 06:42:20;;;;;;;21.30;15.20;;;;;;;20.14;47.00;98865.45;432565;1273;107808;-42
2022/05/05 06:52:27;;;;;;;21.20;14.80;;;;;;;20.22;45.86;98864.89;432446;1273;98062;-44
2022/05/05 07:02:46;;;;;;;21.40;14.60;;;;;;;20.61;46.00;98870.48;432354;1273;109080;-42
2022/05/05 07:12:53;;;;;;;29.30;15.80;;;;;;;20.77;45.47;98871.71;432401;1274;98854;-41
2022/05/05 07:23:00;;;;;;;20.40;12.90;;;;;;;20.93;45.31;98866.06;432259;1274;112488;-44
2022/05/05 07:33:08;;;;;;;21.80;12.70;;;;;;;21.95;45.37;98870.03;432294;1273;109021;-44
2022/05/05 07:43:13;;;;;;;;;;;;;;;22.50;44.45;98868.15;432157;1274;99260;-43
2022/05/05 07:53:20;;;;;;;18.20;11.60;;;;;;;22.42;43.72;98860.99;432037;1274;108461;-42
2022/05/05 08:03:28;;;;;;;15.40;10.40;;;;;;;21.91;42.80;98863.23;432326;1274;98030;-41
2022/05/05 08:13:36;;;;;;;14.30;10.50;;;;;;;21.79;42.54;98866.89;432407;1273;112482;-44
2022/05/05 08:23:43;;;;;;;12.90;10.50;;;;;;;21.89;41.83;98860.25;432575;1274;108849;-41
2022/05/05 08:33:51;;;;;;;10.90;9.40;;;;;;;21.93;41.76;98859.52;432532;1273;97988;-45
2022/05/05 08:54:07;;;;;;;13.90;9.40;;;;;;;22.75;39.96;98859.23;432496;1273;99241;-40
2022/05/05 09:04:14;;;;;;;9.90;8.70;;;;;;;22.81;39.47;98858.72;432572;1272;112413;-45
2022/05/05 09:14:22;;;;;;;12.90;10.00;;;;;;;23.32;39.37;98850.06;432448;1273;108843;-46
2022/05/05 09:24:36;;;;;;;10.00;7.80;;;;;;;23.39;37.75;98849.58;432398;1274;98517;-43
2022/05/05 09:34:43;;;;;;;8.90;7.90;;;;;;;23.29;35.92;98852.84;432560;1273;109166;-41
2022/05/05 09:44:50;;;;;;;8.80;6.90;;;;;;;23.24;35.26;98849.80;432433;1271;98045;-42
2022/05/05 10:05:24;;;;;;;8.60;7.50;;;;;;;23.72;34.90;98843.30;432586;1271;108847;-43
2022/05/05 10:15:33;;;;;;;8.00;7.30;;;;;;;23.57;35.29;98841.31;432586;1271;97976;-42
2022/05/05 10:26:01;;;;;;;9.30;6.40;;;;;;;24.01;34.89;98836.31;432492;1273;108920;-42
2022/05/05 10:36:22;;;;;;;10.20;6.90;;;;;;;24.33;33.84;98834.52;432624;1272;99279;-43
2022/05/05 10:47:05;;;;;;;9.50;7.00;;;;;;;24.28;32.42;98831.75;432532;1272;112698;-43
2022/05/05 11:07:51;;;;;;;11.20;7.10;;;;;;;24.70;32.87;98822.01;432485;1272;98021;-41
2022/05/05 11:28:24;;;;;;;9.50;6.70;;;;;;;24.54;31.96;98817.88;432543;1272;98390;-45
2022/05/05 11:38:32;;;;;;;8.50;6.80;;;;;;;24.30;31.64;98811.38;432559;1272;112687;-44
2022/05/05 11:48:39;;;;;;;7.90;6.90;;;;;;;24.51;31.49;98800.14;432657;1273;108804;-42
2022/05/05 12:09:14;;;;;;;9.40;7.20;;;;;;;24.31;31.96;98799.59;432488;1272;108856;-42
2022/05/05 12:19:22;;;;;;;10.30;8.00;;;;;;;23.77;32.27;98795.05;432529;1273;99269;-44
2022/05/05 12:29:49;;;;;;;14.90;7.50;;;;;;;23.73;32.70;98792.85;432589;1273;112804;-42
2022/05/05 12:39:58;;;;;;;9.50;8.30;;;;;;;23.59;33.02;98783.66;432438;1272;108814;-44
2022/05/05 12:50:26;;;;;;;9.70;7.40;;;;;;;23.20;33.09;98776.39;432535;1273;97951;-46
2022/05/05 13:00:34;;;;;;;19.10;8.20;;;;;;;23.07;33.70;98775.48;432122;1273;108832;-46
2022/05/05 13:11:01;;;;;;;11.40;8.00;;;;;;;23.18;34.00;98764.73;432408;1272;99282;-41
2022/05/05 13:21:09;;;;;;;8.60;7.70;;;;;;;23.16;34.07;98765.16;432551;1273;112204;-48
2022/05/05 13:31:16;;;;;;;8.90;8.10;;;;;;;23.12;34.07;98756.16;432576;1273;109107;-46
2022/05/05 13:41:23;;;;;;;24.90;9.10;;;;;;;23.16;34.29;98746.17;432573;1273;98081;-44
2022/05/05 13:51:29;;;;;;;;;;;;;;;23.04;34.58;98746.50;432590;1272;108763;-44
2022/05/05 14:01:34;;;;;;;12.80;8.70;;;;;;;22.59;34.72;98745.40;432597;1272;98713;-44
2022/05/05 14:22:03;;;;;;;10.90;8.00;;;;;;;21.82;35.36;98759.10;432460;1272;108812;-42
2022/05/05 14:32:11;;;;;;;14.00;8.60;;;;;;;21.25;36.23;98762.27;432608;1271;98052;-42
2022/05/05 14:42:18;;;;;;;32.70;10.00;;;;;;;20.66;37.84;98759.71;432667;1273;109386;-45
2022/05/05 14:52:26;;;;;;;9.30;8.40;;;;;;;20.28;38.64;98768.69;431779;1274;99394;-47
2022/05/05 15:02:34;;;;;;;49.80;11.60;;;;;;;20.02;38.81;98773.98;432599;1272;112443;-43
2022/05/05 15:12:41;;;;;;;16.60;11.60;;;;;;;19.78;39.47;98781.38;432529;1272;108221;-43
2022/05/05 15:22:48;;;;;;;145.80;61.90;;;;;;;19.56;39.63;98802.97;432288;1273;98541;-46
2022/05/05 15:42:59;;;;;;;10.80;8.40;;;;;;;19.31;40.78;98844.09;431965;1274;99250;-45
2022/05/05 15:53:07;;;;;;;10.00;8.10;;;;;;;18.67;42.40;98844.11;432338;1273;113235;-44
2022/05/05 16:03:28;;;;;;;9.90;6.90;;;;;;;18.13;43.79;98854.73;432310;1273;108943;-43
2022/05/05 16:13:34;;;;;;;15.60;8.30;;;;;;;17.60;45.75;98864.21;432514;1272;99241;-44
2022/05/05 16:23:41;;;;;;;13.80;9.80;;;;;;;16.86;47.80;98870.52;432555;1272;107363;-45
2022/05/05 16:33:48;;;;;;;9.40;6.70;;;;;;;16.16;50.20;98892.63;432471;1273;99211;-42
2022/05/05 16:43:56;;;;;;;14.10;9.70;;;;;;;15.75;51.86;98901.17;432489;1271;112947;-44
2022/05/05 16:54:03;;;;;;;10.20;5.90;;;;;;;15.37;53.19;98911.27;432553;1271;108816;-44
2022/05/05 17:14:16;;;;;;;21.30;11.40;;;;;;;15.26;55.50;98936.85;432526;1272;108792;-42
2022/05/05 17:24:24;;;;;;;11.70;8.00;;;;;;;15.12;56.31;98945.52;432429;1272;99272;-42
2022/05/05 17:34:31;;;;;;;12.30;9.70;;;;;;;14.74;56.81;98964.14;432436;1273;112306;-42
2022/05/05 17:55:04;;;;;;;11.10;8.60;;;;;;;14.44;59.40;98967.29;432615;1272;99266;-45
2022/05/05 18:05:13;;;;;;;19.30;14.30;;;;;;;14.36;59.92;98966.51;432415;1272;108359;-45
2022/05/05 18:15:21;;;;;;;21.10;13.60;;;;;;;14.34;60.90;98944.62;432180;1271;524474;-44
2022/05/05 18:25:28;;;;;;;24.70;17.50;;;;;;;14.36;61.72;98943.98;432747;1272;112436;-43
2022/05/05 18:35:36;;;;;;;22.60;17.30;;;;;;;14.45;62.19;98949.73;432547;1271;108717;-44
2022/05/05 18:45:43;;;;;;;24.80;17.80;;;;;;;14.51;62.52;98958.81;432573;1272;98830;-45
2022/05/05 18:55:51;;;;;;;18.90;15.00;;;;;;;14.57;63.03;98969.80;432492;1273;108490;-45
2022/05/05 19:05:58;;;;;;;25.20;17.20;;;;;;;14.72;63.09;98972.60;432741;1271;99269;-44
2022/05/05 19:16:06;;;;;;;21.70;16.90;;;;;;;14.58;63.19;98983.81;432529;1271;112373;-40
2022/05/05 19:26:13;;;;;;;21.80;15.80;;;;;;;14.54;63.47;98985.73;432389;1272;108794;-46
2022/05/05 19:36:19;;;;;;;30.70;20.30;;;;;;;14.49;63.34;99006.88;432653;1272;99273;-41
2022/05/05 19:46:26;;;;;;;36.00;25.60;;;;;;;14.15;64.13;99008.71;432368;1272;108547;-45
2022/05/05 20:27:29;;;;;;;42.10;29.20;;;;;;;13.74;66.14;99029.45;432299;1273;98959;-41
2022/05/05 20:37:37;;;;;;;47.40;29.50;;;;;;;13.62;66.54;99038.43;432585;1272;108902;-44
2022/05/05 20:47:42;;;;;;;42.30;30.70;;;;;;;13.38;66.64;99055.96;432560;1272;99263;-43
2022/05/05 20:57:49;;;;;;;48.10;31.70;;;;;;;13.40;67.58;99063.89;432121;1274;112467;-40
2022/05/05 21:07:57;;;;;;;51.60;33.10;;;;;;;13.56;67.94;99069.15;431926;1273;108800;-44
2022/05/05 21:18:03;;;;;;;41.50;30.30;;;;;;;13.51;68.17;99075.48;432379;1273;99302;-41
2022/05/05 21:28:12;;;;;;;46.90;33.10;;;;;;;13.46;68.43;99078.79;432680;1272;108773;-42
2022/05/05 21:38:18;;;;;;;;;;;;;;;13.38;68.54;99069.13;432431;1272;99253;-40
2022/05/05 21:48:25;;;;;;;54.80;35.40;;;;;;;13.23;68.71;99068.58;432586;1273;112433;-40
2022/05/05 21:58:32;;;;;;;39.90;27.80;;;;;;;13.10;69.03;99064.79;432393;1272;107943;-43
2022/05/05 22:08:40;;;;;;;48.90;29.20;;;;;;;12.95;69.04;99056.50;432502;1273;97976;-43
2022/05/05 22:18:47;;;;;;;44.90;27.90;;;;;;;12.80;69.27;99049.73;432507;1273;108770;-46
2022/05/05 22:28:55;;;;;;;60.60;38.60;;;;;;;12.45;69.38;99049.64;432648;1271;97984;-44
2022/05/05 22:39:02;;;;;;;52.80;36.10;;;;;;;12.20;69.69;99048.92;432667;1272;112271;-44
2022/05/05 22:59:41;;;;;;;43.00;27.40;;;;;;;11.58;69.83;99049.48;432470;1273;99283;-42
2022/05/05 23:09:48;;;;;;;35.70;26.70;;;;;;;11.46;70.37;99043.23;432450;1271;108971;-44
2022/05/05 23:19:55;;;;;;;33.50;22.90;;;;;;;11.38;70.59;99037.64;432652;1272;99378;-41
2022/05/05 23:30:04;;;;;;;38.30;25.80;;;;;;;11.25;70.56;99043.05;432512;1273;112495;-42
2022/05/05 23:40:11;;;;;;;34.70;23.80;;;;;;;11.01;70.47;99059.93;432486;1272;108815;-42
2022/05/05 23:50:18;;;;;;;37.40;23.00;;;;;;;10.94;71.03;99057.13;432537;1271;98859;-42
